createdAt,value
2022-09-11T00:00:53.899Z,100299.66
2022-09-11T00:03:21.982Z,100301.72
2022-09-11T00:05:49.806Z,100306.84
2022-09-11T00:08:19.793Z,100309.66
2022-09-11T00:10:48.326Z,100309.78
2022-09-11T00:13:19.568Z,100310.63
2022-09-11T00:15:47.358Z,100306.25
2022-09-11T00:18:17.736Z,100318.81
2022-09-11T00:20:49.551Z,100305.41
2022-09-11T00:23:17.735Z,100312.59
2022-09-11T00:25:46.280Z,100313.56
2022-09-11T00:28:15.942Z,100323.31
2022-09-11T00:30:44.508Z,100322.59
2022-09-11T00:33:12.469Z,100321.75
2022-09-11T00:35:41.545Z,100332.47
2022-09-11T00:38:12.106Z,100335.16
2022-09-11T00:40:46.325Z,100328.22
2022-09-11T00:43:15.028Z,100301.78
2022-09-11T00:45:42.736Z,100329.06
2022-09-11T00:48:10.419Z,100335.53
2022-09-11T00:50:38.098Z,100326.50
2022-09-11T00:53:09.923Z,100338.09
2022-09-11T00:55:37.923Z,100263.63
2022-09-11T00:58:07.176Z,100296.59
2022-09-11T01:00:35.356Z,100338.44
2022-09-11T01:03:03.180Z,100346.34
2022-09-11T01:05:34.631Z,100341.13
2022-09-11T01:08:03.764Z,100282.28
2022-09-11T01:10:37.402Z,100326.19
2022-09-11T01:13:09.261Z,100343.81
2022-09-11T01:15:39.521Z,100347.59
2022-09-11T01:18:10.089Z,100348.44
2022-09-11T01:20:49.012Z,100352.22
2022-09-11T01:23:37.193Z,100312.91
2022-09-11T01:26:18.275Z,100360.28
2022-09-11T01:28:49.807Z,100358.56
2022-09-11T01:31:18.616Z,100351.75
2022-09-11T01:33:48.490Z,100350.78
2022-09-11T01:36:18.944Z,100358.69
2022-09-11T01:38:47.870Z,100356.84
2022-09-11T01:41:17.165Z,100290.44
2022-09-11T01:43:51.790Z,100362.22
2022-09-11T01:46:23.082Z,100347.38
2022-09-11T01:48:53.851Z,100340.22
2022-09-11T01:51:23.383Z,100303.59
2022-09-11T01:53:51.663Z,100371.25
2022-09-11T01:56:21.280Z,100374.91
2022-09-11T01:58:50.496Z,100371.25
2022-09-11T02:01:20.092Z,100375.88
2022-09-11T02:03:48.871Z,100389.03
2022-09-11T02:06:18.939Z,100387.34
2022-09-11T02:08:49.106Z,100389.28
2022-09-11T02:11:16.693Z,100390.38
2022-09-11T02:13:48.070Z,100385.88
2022-09-11T02:16:19.919Z,100388.56
2022-09-11T02:18:53.923Z,100388.56
2022-09-11T02:21:21.656Z,100393.06
2022-09-11T02:23:49.692Z,100393.94
2022-09-11T02:26:18.276Z,100398.69
2022-09-11T02:28:45.948Z,100390.63
2022-09-11T02:31:13.724Z,100391.63
2022-09-11T02:33:43.543Z,100391.50
2022-09-11T02:36:22.317Z,100397.13
2022-09-11T02:38:55.326Z,100400.63
2022-09-11T02:41:25.107Z,100403.19
2022-09-11T02:43:58.919Z,100398.81
2022-09-11T02:46:48.903Z,100318.50
2022-09-11T02:49:21.661Z,100342.34
2022-09-11T02:51:51.926Z,100403.56
2022-09-11T02:54:22.838Z,100409.78
2022-09-11T02:56:53.386Z,100411.47
2022-09-11T02:59:24.749Z,100356.34
2022-09-11T03:01:53.153Z,100417.09
2022-09-11T03:04:23.395Z,100404.06
2022-09-11T03:06:51.174Z,100422.69
2022-09-11T03:09:18.891Z,100422.56
2022-09-11T03:11:46.671Z,100421.84
2022-09-11T03:14:14.377Z,100420.88
2022-09-11T03:16:42.081Z,100425.25
2022-09-11T03:19:09.958Z,100322.97
2022-09-11T03:21:38.962Z,100432.47
2022-09-11T03:24:09.814Z,100434.03
2022-09-11T03:26:37.555Z,100376.22
2022-09-11T03:29:05.305Z,100436.72
2022-09-11T03:31:36.245Z,100436.09
2022-09-11T03:34:06.378Z,100443.19
2022-09-11T03:36:34.901Z,100440.63
2022-09-11T03:39:04.215Z,100445.97
2022-09-11T03:41:31.887Z,100444.13
2022-09-11T03:43:59.742Z,100367.41
2022-09-11T03:46:27.914Z,100438.78
2022-09-11T03:48:55.583Z,100438.66
2022-09-11T03:51:23.273Z,100447.56
2022-09-11T03:53:50.921Z,100440.25
2022-09-11T03:56:21.147Z,100441.09
2022-09-11T03:58:49.136Z,100437.81
2022-09-11T04:01:19.139Z,100444.00
2022-09-11T04:03:46.716Z,100440.75
2022-09-11T04:06:14.407Z,100433.91
2022-09-11T04:08:42.088Z,100436.84
2022-09-11T04:11:11.623Z,100433.41
2022-09-11T04:13:42.134Z,100442.19
2022-09-11T04:16:12.892Z,100433.28
2022-09-11T04:18:41.094Z,100371.34
2022-09-11T04:21:10.155Z,100441.81
2022-09-11T04:23:37.967Z,100349.63
2022-09-11T04:26:07.208Z,100452.19
2022-09-11T04:28:35.266Z,100442.44
2022-09-11T04:31:04.691Z,100446.81
2022-09-11T04:33:32.344Z,100439.75
2022-09-11T04:36:00.699Z,100441.56
2022-09-11T04:38:28.691Z,100449.75
2022-09-11T04:40:56.447Z,100446.94
2022-09-11T04:43:24.091Z,100452.19
2022-09-11T04:45:51.862Z,100454.97
2022-09-11T04:48:21.003Z,100449.50
2022-09-11T04:50:49.239Z,100449.75
2022-09-11T04:53:16.915Z,100450.59
2022-09-11T04:55:46.044Z,100464.13
2022-09-11T04:58:13.964Z,100459.63
2022-09-11T05:00:41.660Z,100463.25
2022-09-11T05:03:09.324Z,100472.16
2022-09-11T05:05:38.623Z,100472.16
2022-09-11T05:08:06.415Z,100475.84
2022-09-11T05:10:37.978Z,100431.22
2022-09-11T05:13:05.635Z,100489.25
2022-09-11T05:15:33.373Z,100483.13
2022-09-11T05:18:01.023Z,100484.72
2022-09-11T05:20:28.715Z,100488.63
2022-09-11T05:22:58.490Z,100485.81
2022-09-11T05:25:26.310Z,100492.28
2022-09-11T05:27:54.092Z,100491.19
2022-09-11T05:30:21.798Z,100498.22
2022-09-11T05:32:54.801Z,100499.09
2022-09-11T05:35:22.609Z,100499.09
2022-09-11T05:37:50.286Z,100499.09
2022-09-11T05:40:19.326Z,100502.75
2022-09-11T05:42:47.000Z,100502.88
2022-09-11T05:45:14.755Z,100509.06
2022-09-11T05:47:42.502Z,100514.31
2022-09-11T05:50:10.494Z,100511.28
2022-09-11T05:52:38.251Z,100521.75
2022-09-11T05:55:06.627Z,100522.34
2022-09-11T05:57:35.618Z,100534.81
2022-09-11T06:00:04.087Z,100537.34
2022-09-11T06:02:32.077Z,100532.13
2022-09-11T06:04:59.820Z,100534.81
2022-09-11T06:07:27.794Z,100535.75
2022-09-11T06:09:57.822Z,100538.44
2022-09-11T06:12:28.658Z,100548.22
2022-09-11T06:14:57.696Z,100551.25
2022-09-11T06:17:25.372Z,100549.41
2022-09-11T06:19:53.066Z,100545.66
2022-09-11T06:22:21.666Z,100551.94
2022-09-11T06:24:49.538Z,100552.94
2022-09-11T06:27:18.112Z,100554.75
2022-09-11T06:29:45.938Z,100548.69
2022-09-11T06:32:14.930Z,100557.44
2022-09-11T06:34:42.619Z,100552.31
2022-09-11T06:37:10.273Z,100554.03
2022-09-11T06:39:38.002Z,100561.97
2022-09-11T06:42:07.643Z,100561.09
2022-09-11T06:44:35.388Z,100562.78
2022-09-11T06:47:03.776Z,100562.78
2022-09-11T06:49:33.143Z,100568.03
2022-09-11T06:52:00.794Z,100564.88
2022-09-11T06:54:28.463Z,100569.13
2022-09-11T06:56:56.829Z,100567.22
2022-09-11T06:59:24.649Z,100569.88
2022-09-11T07:01:52.700Z,100565.34
2022-09-11T07:04:20.496Z,100579.63
2022-09-11T07:06:50.010Z,100576.06
2022-09-11T07:09:17.706Z,100582.31
2022-09-11T07:11:46.825Z,100585.84
2022-09-11T07:14:14.619Z,100582.31
2022-09-11T07:16:42.483Z,100588.41
2022-09-11T07:19:10.592Z,100588.41
2022-09-11T07:21:38.481Z,100584.88
2022-09-11T07:24:07.817Z,100602.53
2022-09-11T07:26:36.366Z,100593.03
2022-09-11T07:29:04.256Z,100593.88
2022-09-11T07:31:33.117Z,100610.81
2022-09-11T07:34:00.955Z,100609.34
2022-09-11T07:36:30.138Z,100511.13
2022-09-11T07:38:58.536Z,100626.88
2022-09-11T07:41:28.051Z,100582.25
2022-09-11T07:43:56.176Z,100593.44
2022-09-11T07:46:24.056Z,100628.84
2022-09-11T07:48:51.804Z,100635.03
2022-09-11T07:51:20.031Z,100553.03
2022-09-11T07:53:48.604Z,100638.59
2022-09-11T07:56:18.407Z,100638.94
2022-09-11T07:58:48.000Z,100643.19
2022-09-11T08:01:16.383Z,100640.63
2022-09-11T08:03:44.273Z,100639.06
2022-09-11T08:06:13.553Z,100646.88
2022-09-11T08:08:41.213Z,100654.16
2022-09-11T08:11:09.724Z,100647.84
2022-09-11T08:13:37.642Z,100656.72
2022-09-11T08:16:07.281Z,100652.22
2022-09-11T08:18:35.603Z,100589.38
2022-09-11T08:21:04.482Z,100576.78
2022-09-11T08:23:33.040Z,100562.34
2022-09-11T08:26:07.050Z,100668.41
2022-09-11T08:28:34.821Z,100668.53
2022-09-11T08:31:02.717Z,100675.59
2022-09-11T08:33:31.774Z,100607.47
2022-09-11T08:35:59.474Z,100686.31
2022-09-11T08:38:27.167Z,100687.19
2022-09-11T08:40:55.280Z,100694.34
2022-09-11T08:43:24.383Z,100669.19
2022-09-11T08:45:55.811Z,100625.34
2022-09-11T08:48:28.240Z,100630.28
2022-09-11T08:50:57.267Z,100695.22
2022-09-11T08:53:25.686Z,100689.34
2022-09-11T08:55:55.455Z,100695.47
2022-09-11T08:58:27.021Z,100696.22
2022-09-11T09:00:57.633Z,100647.72
2022-09-11T09:04:04.631Z,100691.69
2022-09-11T09:06:44.316Z,100704.13
2022-09-11T09:09:14.177Z,100703.63
2022-09-11T09:11:44.508Z,100708.00
2022-09-11T09:14:32.615Z,100705.94
2022-09-11T09:17:01.313Z,100632.78
2022-09-11T09:19:30.728Z,100708.75
2022-09-11T09:22:04.423Z,100708.63
2022-09-11T09:24:34.268Z,100709.94
2022-09-11T09:27:02.032Z,100713.47
2022-09-11T09:29:36.963Z,100720.56
2022-09-11T09:32:06.601Z,100716.91
2022-09-11T09:34:35.518Z,100716.91
2022-09-11T09:37:06.094Z,100716.78
2022-09-11T09:39:33.785Z,100718.38
2022-09-11T09:42:23.857Z,100654.25
2022-09-11T09:45:02.122Z,100718.72
2022-09-11T09:47:30.582Z,100720.69
2022-09-11T09:49:58.513Z,100730.94
2022-09-11T09:52:28.084Z,100721.03
2022-09-11T09:55:00.130Z,100708.34
2022-09-11T09:57:30.355Z,100662.28
2022-09-11T10:00:01.558Z,100725.09
2022-09-11T10:02:40.659Z,100725.00
2022-09-11T10:05:17.241Z,100727.66
2022-09-11T10:07:50.393Z,100637.91
2022-09-11T10:10:26.662Z,100725.00
2022-09-11T10:13:17.307Z,100722.19
2022-09-11T10:15:43.303Z,100736.56
2022-09-11T10:18:37.571Z,100720.09
2022-09-11T10:21:22.545Z,100732.06
2022-09-11T10:23:53.173Z,100679.19
2022-09-11T10:26:23.367Z,100730.25
2022-09-11T10:28:51.048Z,100733.63
2022-09-11T10:31:18.810Z,100659.50
2022-09-11T10:33:48.328Z,100694.81
2022-09-11T10:36:17.267Z,100733.53
2022-09-11T10:38:47.787Z,100725.47
2022-09-11T10:41:19.587Z,100735.47
2022-09-11T10:43:50.162Z,100678.94
2022-09-11T10:46:40.722Z,100681.50
2022-09-11T10:49:10.794Z,100733.63
2022-09-11T10:51:39.120Z,100667.44
2022-09-11T10:54:14.280Z,100692.84
2022-09-11T10:56:50.162Z,100742.44
2022-09-11T10:59:20.559Z,100741.69
2022-09-11T11:01:48.362Z,100738.75
2022-09-11T11:04:17.057Z,100739.50
2022-09-11T11:06:51.976Z,100743.19
2022-09-11T11:09:31.161Z,100739.63
2022-09-11T11:12:14.174Z,100745.84
2022-09-11T11:15:03.792Z,100745.00
2022-09-11T11:17:36.006Z,100745.84
2022-09-11T11:20:23.731Z,100681.22
2022-09-11T11:23:00.971Z,100750.34
2022-09-11T11:25:29.757Z,100734.09
2022-09-11T11:28:11.750Z,100684.88
2022-09-11T11:30:41.435Z,100702.59
2022-09-11T11:33:36.158Z,100757.31
2022-09-11T11:36:08.869Z,100658.91
2022-09-11T11:38:40.516Z,100761.59
2022-09-11T11:41:10.746Z,100718.81
2022-09-11T11:43:40.997Z,100756.34
2022-09-11T11:46:12.424Z,100759.03
2022-09-11T11:48:42.129Z,100763.53
2022-09-11T11:51:12.284Z,100727.72
2022-09-11T11:53:41.674Z,100760.31
2022-09-11T11:56:15.721Z,100763.13
2022-09-11T11:58:48.359Z,100765.09
2022-09-11T12:01:20.192Z,100760.66
2022-09-11T12:03:50.440Z,100692.63
2022-09-11T12:06:18.209Z,100768.59
2022-09-11T12:08:46.117Z,100760.66
2022-09-11T12:11:15.520Z,100725.00
2022-09-11T12:13:44.134Z,100742.00
2022-09-11T12:16:19.897Z,100686.28
2022-09-11T12:19:05.615Z,100743.59
2022-09-11T12:21:38.313Z,100758.97
2022-09-11T12:24:21.144Z,100754.38
2022-09-11T12:26:49.069Z,100664.56
2022-09-11T12:29:49.545Z,100752.41
2022-09-11T12:32:43.455Z,100748.03
2022-09-11T12:35:22.502Z,100747.28
2022-09-11T12:37:55.739Z,100739.47
2022-09-11T12:40:33.285Z,100750.47
2022-09-11T12:43:17.528Z,100754.03
2022-09-11T12:45:47.796Z,100657.38
2022-09-11T12:48:17.533Z,100726.03
2022-09-11T12:50:52.064Z,100752.81
2022-09-11T12:53:23.591Z,100750.13
2022-09-11T12:55:59.189Z,100719.56
2022-09-11T12:58:31.080Z,100749.88
2022-09-11T13:01:04.316Z,100717.66
2022-09-11T13:03:33.370Z,100743.91
2022-09-11T13:06:03.197Z,100747.09
2022-09-11T13:08:33.693Z,100744.28
2022-09-11T13:11:36.412Z,100746.84
2022-09-11T13:14:04.234Z,100699.84
2022-09-11T13:16:34.765Z,100732.47
2022-09-11T13:19:11.927Z,100724.94
2022-09-11T13:21:40.523Z,100679.53
2022-09-11T13:24:23.207Z,100719.22
2022-09-11T13:26:55.229Z,100725.34
2022-09-11T13:29:24.763Z,100712.66
2022-09-11T13:31:52.457Z,100704.94
2022-09-11T13:34:21.920Z,100700.75
2022-09-11T13:36:54.580Z,100703.78
2022-09-11T13:39:24.096Z,100625.94
2022-09-11T13:41:59.316Z,100703.31
2022-09-11T13:44:35.431Z,100703.94
2022-09-11T13:47:06.374Z,100706.50
2022-09-11T13:49:37.321Z,100594.25
2022-09-11T13:52:05.702Z,100700.91
2022-09-11T13:54:34.223Z,100638.63
2022-09-11T13:57:13.855Z,100688.22
2022-09-11T13:59:46.210Z,100683.44
2022-09-11T14:02:28.092Z,100692.13
2022-09-11T14:05:04.697Z,100684.81
2022-09-11T14:07:33.049Z,100620.66
2022-09-11T14:10:04.500Z,100687.97
2022-09-11T14:12:32.196Z,100680.41
2022-09-11T14:15:02.083Z,100682.63
2022-09-11T14:17:29.786Z,100672.38
2022-09-11T14:20:01.116Z,100675.75
2022-09-11T14:22:31.027Z,100682.13
2022-09-11T14:25:04.961Z,100680.19
2022-09-11T14:27:37.331Z,100685.53
2022-09-11T14:30:27.993Z,100681.25
2022-09-11T14:33:20.117Z,100673.31
2022-09-11T14:35:50.266Z,100676.25
2022-09-11T14:38:19.143Z,100681.75
2022-09-11T14:40:51.082Z,100681.03
2022-09-11T14:43:21.106Z,100614.19
2022-09-11T14:45:51.581Z,100676.63
2022-09-11T14:48:19.253Z,100675.66
2022-09-11T14:50:47.231Z,100670.19
2022-09-11T14:53:26.735Z,100604.19
2022-09-11T14:55:54.501Z,100675.31
2022-09-11T14:58:22.180Z,100670.66
2022-09-11T15:00:49.876Z,100668.44
2022-09-11T15:03:18.130Z,100668.09
2022-09-11T15:05:46.743Z,100664.91
2022-09-11T15:08:14.656Z,100651.84
2022-09-11T15:10:46.336Z,100666.25
2022-09-11T15:13:14.355Z,100667.25
2022-09-11T15:15:42.117Z,100660.06
2022-09-11T15:18:10.236Z,100663.69
2022-09-11T15:20:37.934Z,100657.72
2022-09-11T15:23:06.418Z,100651.22
2022-09-11T15:25:34.326Z,100654.81
2022-09-11T15:28:03.627Z,100657.50
2022-09-11T15:30:31.554Z,100640.50
2022-09-11T15:32:59.253Z,100641.84
2022-09-11T15:35:32.212Z,100637.09
2022-09-11T15:38:00.657Z,100640.38
2022-09-11T15:40:29.238Z,100642.56
2022-09-11T15:42:57.573Z,100634.25
2022-09-11T15:45:26.865Z,100637.66
2022-09-11T15:47:54.586Z,100635.56
2022-09-11T15:50:28.298Z,100627.50
2022-09-11T15:52:55.996Z,100629.56
2022-09-11T15:55:23.911Z,100631.25
2022-09-11T15:57:51.673Z,100625.63
2022-09-11T16:00:19.462Z,100632.72
2022-09-11T16:02:48.754Z,100636.84
2022-09-11T16:05:16.500Z,100629.53
2022-09-11T16:07:44.202Z,100633.78
2022-09-11T16:12:30.271Z,100629.16
2022-09-11T16:14:57.932Z,100637.66
2022-09-11T16:17:31.045Z,100631.31
2022-09-11T16:20:00.110Z,100636.56
2022-09-11T16:22:31.317Z,100631.06
2022-09-11T16:25:00.048Z,100628.38
2022-09-11T16:27:28.003Z,100624.69
2022-09-11T16:32:43.498Z,100615.25
2022-09-11T16:35:14.077Z,100612.56
2022-09-11T16:37:41.793Z,100615.72
2022-09-11T16:40:10.497Z,100605.94
2022-09-11T16:42:38.251Z,100607.19
2022-09-11T16:45:06.804Z,100617.78
2022-09-11T16:47:34.883Z,100613.97
2022-09-11T16:50:10.338Z,100614.09
2022-09-11T16:52:39.769Z,100570.59
2022-09-11T16:55:09.582Z,100584.38
2022-09-11T16:57:37.358Z,100613.13
2022-09-11T17:00:05.767Z,100607.88
2022-09-11T17:02:33.490Z,100606.03
2022-09-11T17:05:01.216Z,100608.59
2022-09-11T17:07:28.999Z,100604.09
2022-09-11T17:09:58.039Z,100596.84
2022-09-11T17:12:25.861Z,100606.53
2022-09-11T17:14:54.575Z,100610.78
2022-09-11T17:17:23.156Z,100613.59
2022-09-11T17:19:51.198Z,100610.44
2022-09-11T17:22:18.911Z,100615.47
2022-09-11T17:24:46.612Z,100609.50
2022-09-11T17:27:15.646Z,100621.63
2022-09-11T17:29:44.746Z,100621.16
2022-09-11T17:32:27.709Z,100617.03
2022-09-11T17:34:55.836Z,100623.50
2022-09-11T17:37:23.518Z,100621.09
2022-09-11T17:39:51.261Z,100617.78
2022-09-11T17:42:20.320Z,100617.19
2022-09-11T17:44:48.118Z,100615.13
2022-09-11T17:47:15.791Z,100620.50
2022-09-11T17:49:43.602Z,100619.94
2022-09-11T17:52:11.309Z,100621.88
2022-09-11T17:54:39.068Z,100623.72
2022-09-11T17:57:06.901Z,100625.81
2022-09-11T17:59:36.684Z,100609.59
2022-09-11T18:02:04.441Z,100618.13
2022-09-11T18:04:32.151Z,100623.75
2022-09-11T18:06:59.872Z,100623.03
2022-09-11T18:09:27.623Z,100628.53
2022-09-11T18:11:55.345Z,100630.47
2022-09-11T18:14:23.104Z,100631.59
2022-09-11T18:16:52.195Z,100629.91
2022-09-11T18:19:21.136Z,100638.19
2022-09-11T18:21:50.395Z,100639.28
2022-09-11T18:24:19.908Z,100606.47
2022-09-11T18:26:49.737Z,100641.38
2022-09-11T18:29:19.761Z,100608.06
2022-09-11T18:31:49.867Z,100646.09
2022-09-11T18:34:20.295Z,100643.56
2022-09-11T18:36:47.837Z,100651.00
2022-09-11T18:39:16.819Z,100618.06
2022-09-11T18:41:45.243Z,100652.09
2022-09-11T18:44:18.790Z,100615.19
2022-09-11T18:46:47.648Z,100651.34
2022-09-11T18:49:15.746Z,100662.22
2022-09-11T18:51:44.806Z,100658.69
2022-09-11T18:54:15.029Z,100664.06
2022-09-11T18:56:42.964Z,100662.34
2022-09-11T18:59:10.760Z,100666.00
2022-09-11T19:01:40.031Z,100669.69
2022-09-11T19:04:08.218Z,100671.63
2022-09-11T19:06:38.597Z,100677.88
2022-09-11T19:09:08.019Z,100682.38
2022-09-11T19:11:36.272Z,100675.44
2022-09-11T19:14:04.897Z,100675.44
2022-09-11T19:16:32.653Z,100658.69
2022-09-11T19:19:00.426Z,100679.19
2022-09-11T19:21:28.290Z,100683.47
2022-09-11T19:23:57.670Z,100689.91
2022-09-11T19:26:28.088Z,100686.28
2022-09-11T19:28:55.901Z,100689.91
2022-09-11T19:31:25.498Z,100668.22
2022-09-11T19:33:54.510Z,100693.84
2022-09-11T19:36:23.411Z,100653.22
2022-09-11T19:38:52.878Z,100697.63
2022-09-11T19:41:21.742Z,100675.28
2022-09-11T19:43:51.233Z,100671.88
2022-09-11T19:46:19.619Z,100699.44
2022-09-11T19:48:48.455Z,100696.75
2022-09-11T19:51:16.982Z,100694.09
2022-09-11T19:53:44.868Z,100700.31
2022-09-11T19:56:12.682Z,100698.59
2022-09-11T19:58:40.416Z,100695.06
2022-09-11T20:01:10.702Z,100655.16
2022-09-11T20:03:38.563Z,100692.50
2022-09-11T20:06:06.688Z,100694.31
2022-09-11T20:08:34.625Z,100635.16
2022-09-11T20:11:02.630Z,100697.13
2022-09-11T20:13:30.843Z,100693.56
2022-09-11T20:16:03.298Z,100681.75
2022-09-11T20:18:32.558Z,100686.75
2022-09-11T20:21:02.093Z,100697.50
2022-09-11T20:23:29.813Z,100688.56
2022-09-11T20:26:16.825Z,100686.25
2022-09-11T20:28:45.269Z,100688.00
2022-09-11T20:31:14.279Z,100689.81
2022-09-11T20:33:43.912Z,100681.38
2022-09-11T20:36:11.735Z,100698.97
2022-09-11T20:38:39.460Z,100685.66
2022-09-11T20:41:07.935Z,100694.78
2022-09-11T20:43:35.650Z,100641.19
2022-09-11T20:46:03.403Z,100633.50
2022-09-11T20:48:31.226Z,100691.41
2022-09-11T20:51:03.976Z,100694.91
2022-09-11T20:53:31.646Z,100608.63
2022-09-11T20:56:03.166Z,100638.88
2022-09-11T20:58:30.867Z,100689.06
2022-09-11T21:01:00.568Z,100634.47
2022-09-11T21:03:28.595Z,100688.19
2022-09-11T21:05:56.461Z,100647.78
2022-09-11T21:08:26.397Z,100685.66
2022-09-11T21:10:54.102Z,100691.13
2022-09-11T21:13:21.804Z,100685.88
2022-09-11T21:15:49.527Z,100693.94
2022-09-11T21:18:17.974Z,100693.94
2022-09-11T21:20:53.819Z,100685.13
2022-09-11T21:23:21.623Z,100689.78
2022-09-11T21:25:52.645Z,100679.06
2022-09-11T21:28:20.644Z,100687.94
2022-09-11T21:30:48.299Z,100686.25
2022-09-11T21:33:16.018Z,100679.19
2022-09-11T21:35:43.976Z,100677.44
2022-09-11T21:38:11.652Z,100674.78
2022-09-11T21:40:39.299Z,100671.38
2022-09-11T21:43:08.937Z,100668.69
2022-09-11T21:45:36.614Z,100666.00
2022-09-11T21:48:05.612Z,100658.41
2022-09-11T21:50:33.250Z,100662.59
2022-09-11T21:53:01.374Z,100660.09
2022-09-11T21:55:29.082Z,100662.78
2022-09-11T21:57:56.773Z,100625.34
2022-09-11T22:00:25.796Z,100662.78
2022-09-11T22:02:53.497Z,100660.34
2022-09-11T22:05:21.469Z,100669.38
2022-09-11T22:07:49.174Z,100671.19
2022-09-11T22:10:16.845Z,100660.34
2022-09-11T22:12:44.545Z,100661.44
2022-09-11T22:15:12.660Z,100580.94
2022-09-11T22:17:41.687Z,100659.84
2022-09-11T22:20:09.820Z,100655.47
2022-09-11T22:22:38.192Z,100664.50
2022-09-11T22:25:07.025Z,100655.94
2022-09-11T22:27:34.807Z,100647.25
2022-09-11T22:30:02.833Z,100655.69
2022-09-11T22:32:31.220Z,100611.75
2022-09-11T22:35:00.223Z,100671.16
2022-09-11T22:37:27.910Z,100654.34
2022-09-11T22:39:55.614Z,100656.16
2022-09-11T22:42:23.346Z,100659.84
2022-09-11T22:44:50.982Z,100657.88
2022-09-11T22:47:18.643Z,100665.19
2022-09-11T22:49:46.299Z,100668.94
2022-09-11T22:52:15.600Z,100603.69
2022-09-11T22:54:44.138Z,100602.31
2022-09-11T22:57:11.842Z,100662.00
2022-09-11T22:59:39.555Z,100662.88
2022-09-11T23:02:07.793Z,100665.56
2022-09-11T23:04:35.524Z,100665.91
2022-09-11T23:07:17.614Z,100661.38
2022-09-11T23:09:46.699Z,100609.41
2022-09-11T23:12:14.679Z,100655.66
2022-09-11T23:14:42.363Z,100671.50
2022-09-11T23:17:10.032Z,100659.91
2022-09-11T23:19:37.800Z,100656.38
2022-09-11T23:22:05.541Z,100659.91
2022-09-11T23:24:33.226Z,100656.47
2022-09-11T23:27:02.227Z,100659.28
2022-09-11T23:29:29.988Z,100657.69
2022-09-11T23:31:57.792Z,100667.56
2022-09-11T23:34:25.507Z,100664.88
2022-09-11T23:36:53.168Z,100661.38
2022-09-11T23:39:20.861Z,100664.03
2022-09-11T23:41:48.528Z,100667.66
2022-09-11T23:44:18.365Z,100667.66
2022-09-11T23:46:46.036Z,100664.88
2022-09-11T23:49:14.638Z,100626.66
2022-09-11T23:51:42.625Z,100657.31
2022-09-11T23:54:10.297Z,100654.63
2022-09-11T23:56:37.971Z,100657.31
2022-09-11T23:59:06.610Z,100661.31
